KRSP

NSF Thurmont

NSF Thurmont, Maryland, USA
METAR KRSP 211954Z AUTO 24005KT BKN025 OVC065 11/04 A3011 RMK AO2 SLP207 T01060044 PWINO $
Observed Flight Rules
Jan-21 @ 19:54 UTC (36 minutes ago)
Wind Clouds
240° at 5 knots
  • Broken at 2,500' AGL
  • Overcast at 6,500' AGL
Temperatures Readings
Current 11°C / 52°F
Dewpoint 4°C / 39°F
Humidity 62%
Altimeter 30.11" Hg
Pressure 1020.7 hPa
Elevation 561
METAR KRSP 211954Z AUTO 24005KT BKN025 OVC065 11/04 A3011 RMK AO2 SLP207 T01060044 PWINO $
Observed Flight Rules
Jan-21 @ 19:54 UTC
(36 minutes ago)
Wind
240° at 5 knots
Clouds
  • Broken at 2,500' AGL
  • Overcast at 6,500' AGL
Temperature Dewpoint
11°C / 52°F 4°C / 39°F
Humidity Altimeter Pressure
62% 30.11" Hg 1020.7 hPa